Time;durP1;ratioP1;P1;durP2;ratioP2;P2;SDS_P1;SDS_P2;PMS_P1;PMS_P2;Temp;Humidity;BMP_temperature;BMP_pressure;BME280_temperature;BME280_humidity;BME280_pressure;Samples;Min_cycle;Max_cycle;Signal;HPM_P1;HPM_P2
2022/03/03 00:00:15;;;;;;;17.63;15.70;;;;;;;1.44;67.90;101118.56;5007703;28;20204;-79
2022/03/03 00:02:43;;;;;;;17.83;16.20;;;;;;;1.39;67.13;101118.44;5009421;28;20665;-79
2022/03/03 00:05:11;;;;;;;18.50;16.50;;;;;;;1.39;66.82;101126.16;5007017;28;20206;-78
2022/03/03 00:07:41;;;;;;;18.63;16.57;;;;;;;1.39;66.29;101143.31;5005871;28;20291;-79
2022/03/03 00:10:11;;;;;;;19.40;17.40;;;;;;;1.26;67.30;101147.19;5008078;28;20225;-79
2022/03/03 00:12:38;;;;;;;20.07;16.93;;;;;;;1.29;67.56;101130.97;5006942;28;21643;-78
2022/03/03 00:15:05;;;;;;;17.53;15.83;;;;;;;1.36;67.55;101118.34;5009122;28;20238;-79
2022/03/03 00:17:31;;;;;;;17.07;15.43;;;;;;;1.42;67.47;101115.09;5010514;28;20576;-78
2022/03/03 00:19:58;;;;;;;18.30;16.60;;;;;;;1.34;65.95;101114.00;5009896;28;20209;-77
2022/03/03 00:22:24;;;;;;;17.30;15.60;;;;;;;1.18;64.95;101154.66;5005476;28;20234;-78
2022/03/03 00:24:52;;;;;;;18.23;16.23;;;;;;;0.79;65.81;101175.72;5005352;28;20206;-78
2022/03/03 00:27:20;;;;;;;20.00;17.23;;;;;;;0.62;67.14;101137.47;5010859;28;20301;-79
2022/03/03 00:29:47;;;;;;;20.50;18.33;;;;;;;0.75;68.10;101104.50;5011129;28;20212;-79
2022/03/03 00:32:13;;;;;;;19.77;17.67;;;;;;;0.88;68.32;101085.19;5011303;28;20256;-79
2022/03/03 00:34:40;;;;;;;20.83;18.00;;;;;;;0.83;69.28;101070.47;5012690;28;20202;-79
2022/03/03 00:37:07;;;;;;;20.03;17.80;;;;;;;0.71;69.30;101060.66;5012008;28;20219;-78
2022/03/03 00:39:33;;;;;;;23.17;16.93;;;;;;;0.87;69.46;101056.88;5010563;28;20201;-78
2022/03/03 00:42:00;;;;;;;17.93;16.13;;;;;;;0.99;69.08;101059.81;5022185;23;20257;-77
2022/03/03 00:44:27;;;;;;;21.80;17.10;;;;;;;1.08;68.87;101059.22;5008346;28;20266;-77
2022/03/03 00:46:54;;;;;;;19.80;17.70;;;;;;;1.11;68.94;101055.06;5005104;28;20216;-78
2022/03/03 00:49:20;;;;;;;19.10;17.13;;;;;;;1.21;69.66;101045.03;5006694;28;20249;-77
2022/03/03 00:51:47;;;;;;;22.53;16.87;;;;;;;1.17;68.95;101042.38;5004993;28;20215;-77
2022/03/03 00:54:13;;;;;;;18.37;16.37;;;;;;;0.77;69.66;101022.31;5005175;28;20204;-77
2022/03/03 00:56:40;;;;;;;19.00;17.00;;;;;;;0.48;70.11;100994.06;5006338;28;20208;-77
2022/03/03 00:59:07;;;;;;;20.83;16.97;;;;;;;0.51;70.13;100993.25;5004360;28;20665;-76
2022/03/03 01:01:35;;;;;;;22.63;16.97;;;;;;;0.60;70.06;100983.28;5005090;28;20223;-76
2022/03/03 01:04:01;;;;;;;18.57;16.33;;;;;;;0.68;70.38;100971.53;5006117;28;20630;-77
2022/03/03 01:06:28;;;;;;;19.30;16.83;;;;;;;0.71;70.46;100966.47;5004847;28;20229;-77
2022/03/03 01:08:54;;;;;;;16.83;15.13;;;;;;;0.70;70.05;100979.28;5004306;28;20231;-77
2022/03/03 01:11:21;;;;;;;17.60;15.80;;;;;;;0.61;71.13;100967.03;5002903;28;20329;-76
2022/03/03 01:13:47;;;;;;;18.37;15.73;;;;;;;0.52;70.71;100977.91;5004675;28;20662;-78
2022/03/03 01:16:14;;;;;;;16.43;14.93;;;;;;;0.58;70.53;100982.38;5004560;28;20200;-77
2022/03/03 01:18:43;;;;;;;16.40;14.80;;;;;;;0.56;71.11;100973.75;5005355;28;20255;-77
2022/03/03 01:21:09;;;;;;;16.33;14.70;;;;;;;0.58;70.67;100967.81;5004803;28;20205;-77
2022/03/03 01:23:36;;;;;;;16.53;14.70;;;;;;;0.55;71.25;100959.13;5004269;28;20204;-77
2022/03/03 01:26:02;;;;;;;17.73;14.90;;;;;;;0.44;71.49;100943.41;5003814;28;20200;-77
2022/03/03 01:28:29;;;;;;;16.00;14.40;;;;;;;0.45;71.93;100923.75;5004716;28;20272;-78
2022/03/03 01:30:55;;;;;;;16.67;15.03;;;;;;;0.45;71.51;100926.31;5005441;28;20231;-77
2022/03/03 01:33:22;;;;;;;16.37;14.67;;;;;;;0.35;71.29;100933.72;5003675;28;20272;-77
2022/03/03 01:35:49;;;;;;;17.17;15.27;;;;;;;0.26;72.45;100910.34;5004765;28;20259;-76
2022/03/03 01:38:16;;;;;;;16.47;14.80;;;;;;;0.29;72.24;100900.16;5005705;28;20223;-77
2022/03/03 01:40:42;;;;;;;16.67;15.07;;;;;;;0.30;72.51;100895.91;5002547;28;20228;-77
2022/03/03 01:43:09;;;;;;;17.10;15.40;;;;;;;0.31;72.79;100884.81;5003903;28;20219;-74
2022/03/03 01:45:35;;;;;;;17.33;15.63;;;;;;;0.32;72.57;100881.44;5003908;28;20544;-77
2022/03/03 01:48:02;;;;;;;18.77;15.37;;;;;;;0.30;71.34;100901.06;5005165;28;20723;-77
2022/03/03 01:50:28;;;;;;;18.40;16.50;;;;;;;0.27;70.98;100932.63;5011983;28;20230;-78
2022/03/03 01:52:56;;;;;;;17.20;15.40;;;;;;;0.41;71.06;100938.19;5014406;28;20211;-77
2022/03/03 01:55:23;;;;;;;15.90;14.30;;;;;;;0.55;71.58;100931.75;5014583;28;20272;-77
2022/03/03 01:57:50;;;;;;;16.37;14.83;;;;;;;0.66;71.44;100934.66;5013915;28;20228;-76
2022/03/03 02:00:18;;;;;;;19.93;15.23;;;;;;;0.61;70.22;100943.91;5014292;28;20209;-77
2022/03/03 02:02:46;;;;;;;16.83;15.10;;;;;;;0.62;69.86;100955.06;5014220;28;20212;-76
2022/03/03 02:05:12;;;;;;;18.63;15.63;;;;;;;0.62;69.86;100971.34;5014287;28;20211;-76
2022/03/03 02:07:39;;;;;;;17.07;15.47;;;;;;;0.67;69.33;100982.63;5014470;28;20242;-76
2022/03/03 02:10:07;;;;;;;16.40;14.80;;;;;;;0.74;69.29;100976.00;5013998;28;20211;-75
2022/03/03 02:12:34;;;;;;;18.07;15.07;;;;;;;0.64;70.09;100969.69;5006018;28;20206;-76
2022/03/03 02:15:00;;;;;;;15.27;13.83;;;;;;;0.48;70.60;100944.38;5014073;28;20212;-77
2022/03/03 02:17:28;;;;;;;16.17;14.67;;;;;;;0.47;71.17;100940.94;5014090;28;20257;-77
2022/03/03 02:19:54;;;;;;;16.80;15.27;;;;;;;0.29;72.05;100938.66;5013822;28;20207;-77
2022/03/03 02:22:22;;;;;;;15.20;13.80;;;;;;;0.08;72.11;100912.34;5014014;28;20214;-77
2022/03/03 02:24:48;;;;;;;16.57;14.97;;;;;;;0.08;72.73;100879.88;5014032;28;20258;-77
2022/03/03 02:27:15;;;;;;;15.80;14.30;;;;;;;0.23;72.91;100868.31;5013729;28;20263;-76
2022/03/03 02:29:41;;;;;;;17.27;15.27;;;;;;;0.27;72.26;100873.56;5013695;28;20265;-77
2022/03/03 02:32:09;;;;;;;18.23;15.63;;;;;;;0.21;72.29;100881.09;5013483;28;20786;-77
2022/03/03 02:34:36;;;;;;;15.23;13.83;;;;;;;0.19;73.59;100865.63;5014137;28;20211;-76
2022/03/03 02:37:03;;;;;;;18.17;16.10;;;;;;;0.13;73.22;100864.59;5013703;28;20237;-76
2022/03/03 02:39:31;;;;;;;17.13;15.50;;;;;;;0.07;72.71;100875.53;5013508;28;20277;-77
2022/03/03 02:41:57;;;;;;;15.97;14.33;;;;;;;0.06;72.43;100875.47;5005230;28;20257;-76
2022/03/03 02:44:23;;;;;;;17.10;15.37;;;;;;;0.01;72.78;100864.22;5013478;28;20217;-76
2022/03/03 02:46:50;;;;;;;17.10;15.30;;;;;;;-0.12;73.33;100856.16;5013420;28;20611;-76
2022/03/03 02:49:17;;;;;;;21.33;15.57;;;;;;;-0.10;73.22;100861.31;5013085;28;20209;-76
2022/03/03 02:51:43;;;;;;;18.30;16.40;;;;;;;-0.14;73.83;100852.66;5013706;28;20231;-76
2022/03/03 02:54:09;;;;;;;16.97;15.17;;;;;;;-0.14;73.66;100856.91;5013281;28;20675;-76
2022/03/03 02:57:53;;;;;;;18.27;16.47;;;;;;;-0.16;73.44;100850.84;5013142;28;20212;-76
2022/03/03 02:59:24;;;;;;;23.00;16.53;;;;;;;-0.08;73.16;100851.97;5012982;28;20592;-76
2022/03/03 03:01:50;;;;;;;18.00;16.10;;;;;;;-0.20;72.39;100857.59;5013399;28;20203;-76
2022/03/03 03:04:17;;;;;;;18.23;16.03;;;;;;;-0.30;72.80;100856.41;5013167;28;20740;-76
2022/03/03 03:06:43;;;;;;;19.37;17.40;;;;;;;-0.12;72.63;100868.97;5012829;28;20673;-76
2022/03/03 03:09:10;;;;;;;18.50;16.70;;;;;;;-0.05;70.99;100893.13;5012782;28;20237;-77
2022/03/03 03:11:38;;;;;;;22.17;17.13;;;;;;;-0.03;70.48;100920.56;5004763;28;20868;-76
2022/03/03 03:14:05;;;;;;;19.17;17.10;;;;;;;-0.05;70.12;100944.44;5013061;28;20305;-76
2022/03/03 03:16:31;;;;;;;17.10;15.30;;;;;;;-0.02;70.74;100935.16;5013051;28;20210;-76
2022/03/03 03:18:58;;;;;;;18.60;16.80;;;;;;;0.04;71.51;100915.63;5012805;28;20230;-76
2022/03/03 03:21:24;;;;;;;18.93;16.93;;;;;;;0.12;71.23;100903.91;5013066;28;20212;-76
2022/03/03 03:23:50;;;;;;;22.00;18.20;;;;;;;0.16;70.54;100911.75;5012804;28;20215;-76
2022/03/03 03:26:17;;;;;;;18.90;17.00;;;;;;;0.22;70.19;100923.03;5012879;28;20270;-76
2022/03/03 03:28:45;;;;;;;19.53;16.87;;;;;;;0.18;70.55;100922.94;5012763;28;20224;-76
2022/03/03 03:31:11;;;;;;;17.37;15.67;;;;;;;0.17;70.91;100916.06;5012702;28;20227;-76
2022/03/03 03:33:37;;;;;;;18.83;16.83;;;;;;;0.21;71.10;100916.16;5012927;28;20256;-76
2022/03/03 03:36:04;;;;;;;20.30;17.93;;;;;;;0.21;70.92;100908.47;5012702;28;20253;-76
2022/03/03 03:38:31;;;;;;;19.30;17.07;;;;;;;0.08;70.15;100920.94;5012686;28;20228;-76
2022/03/03 03:40:57;;;;;;;25.97;17.70;;;;;;;0.02;70.90;100918.16;5006474;28;20199;-76
2022/03/03 03:43:24;;;;;;;20.00;17.20;;;;;;;0.06;70.69;100907.19;5010319;28;20659;-76
2022/03/03 03:45:52;;;;;;;19.03;17.03;;;;;;;-0.08;72.17;100904.19;5012601;28;20291;-75
2022/03/03 03:48:19;;;;;;;18.47;16.57;;;;;;;-0.05;72.11;100868.34;5012535;28;20302;-76
2022/03/03 03:50:45;;;;;;;23.10;18.00;;;;;;;-0.18;71.06;100879.03;5012326;28;20262;-76
2022/03/03 03:53:12;;;;;;;18.67;16.77;;;;;;;-0.11;70.74;100890.38;5012399;28;20550;-76
2022/03/03 03:55:38;;;;;;;21.10;16.50;;;;;;;-0.04;70.88;100887.16;5012292;28;20205;-76
2022/03/03 03:58:05;;;;;;;19.93;17.90;;;;;;;0.03;70.73;100890.81;5012553;28;20231;-76
2022/03/03 04:00:31;;;;;;;18.93;17.03;;;;;;;-0.08;70.60;100900.72;5011498;28;20210;-76
2022/03/03 04:02:59;;;;;;;19.40;17.33;;;;;;;-0.07;70.60;100913.59;5012155;28;20274;-76
2022/03/03 04:05:25;;;;;;;20.40;17.07;;;;;;;-0.03;70.37;100901.75;5011948;28;20207;-76
2022/03/03 04:07:52;;;;;;;20.00;17.07;;;;;;;-0.01;70.75;100895.81;5012370;28;20234;-76
2022/03/03 04:10:18;;;;;;;18.87;16.97;;;;;;;0.01;71.07;100888.19;5011250;28;20619;-76
2022/03/03 04:12:45;;;;;;;26.83;18.37;;;;;;;0.04;70.78;100895.09;5004668;28;20250;-76
2022/03/03 04:15:11;;;;;;;18.50;16.60;;;;;;;0.09;70.61;100899.56;5011838;28;20208;-76
2022/03/03 04:17:38;;;;;;;23.27;18.20;;;;;;;-0.08;71.90;100893.91;5012033;28;20224;-76
2022/03/03 04:20:07;;;;;;;19.33;17.23;;;;;;;-0.23;72.26;100890.84;5011569;28;20212;-76
2022/03/03 04:22:35;;;;;;;18.67;16.57;;;;;;;-0.45;72.82;100884.16;5011800;28;20743;-76
2022/03/03 04:25:02;;;;;;;20.20;17.97;;;;;;;-0.52;73.41;100861.69;5011821;28;20214;-76
2022/03/03 04:27:28;;;;;;;18.20;16.40;;;;;;;-0.58;74.54;100833.28;5011582;28;20699;-77
2022/03/03 04:29:54;;;;;;;18.60;16.80;;;;;;;-0.71;74.94;100816.66;5011625;28;20210;-77
2022/03/03 04:32:21;;;;;;;19.07;15.77;;;;;;;-0.69;74.37;100815.00;5011541;28;20282;-74
2022/03/03 04:34:47;;;;;;;17.93;16.23;;;;;;;-0.81;74.43;100812.91;5011849;28;20557;-77
2022/03/03 04:37:15;;;;;;;17.67;15.80;;;;;;;-0.76;74.42;100810.50;5012082;28;20233;-76
2022/03/03 04:39:41;;;;;;;17.70;15.90;;;;;;;-0.80;74.30;100812.94;5011639;28;20723;-76
2022/03/03 04:42:08;;;;;;;18.50;16.60;;;;;;;-0.84;74.46;100807.66;5003517;28;20679;-76
2022/03/03 04:44:34;;;;;;;18.47;16.67;;;;;;;-0.85;74.46;100800.81;5011905;28;20262;-75
2022/03/03 04:47:01;;;;;;;17.77;15.90;;;;;;;-0.89;74.81;100796.38;5011964;28;20232;-76
2022/03/03 04:49:27;;;;;;;17.37;15.50;;;;;;;-0.88;74.75;100800.69;5011636;28;20217;-76
2022/03/03 04:51:54;;;;;;;17.10;15.40;;;;;;;-0.89;74.85;100794.72;5011939;28;20264;-76
2022/03/03 04:54:22;;;;;;;15.93;14.37;;;;;;;-1.02;75.40;100777.19;5011787;28;20820;-76
2022/03/03 04:56:48;;;;;;;18.50;16.30;;;;;;;-1.00;75.29;100776.41;5011384;28;20216;-76
2022/03/03 04:59:15;;;;;;;18.73;16.87;;;;;;;-0.98;75.68;100778.16;5011603;28;20208;-77
2022/03/03 05:01:41;;;;;;;20.03;16.97;;;;;;;-1.00;76.54;100757.59;5011740;28;20204;-76
2022/03/03 05:04:07;;;;;;;19.20;17.20;;;;;;;-1.00;76.92;100750.78;5011900;28;20220;-76
2022/03/03 05:06:34;;;;;;;18.67;16.77;;;;;;;-0.98;77.23;100747.41;5011534;28;20216;-76
2022/03/03 05:09:00;;;;;;;20.17;17.50;;;;;;;-1.07;77.01;100732.59;5011702;28;20225;-76
2022/03/03 05:11:28;;;;;;;21.27;18.17;;;;;;;-1.11;77.07;100731.66;5003307;28;20233;-76
2022/03/03 05:13:55;;;;;;;19.77;17.43;;;;;;;-0.98;77.04;100729.47;5015366;28;20206;-76
2022/03/03 05:16:21;;;;;;;20.27;16.53;;;;;;;-0.93;76.16;100741.63;5015287;28;20216;-76
2022/03/03 05:18:47;;;;;;;18.90;17.13;;;;;;;-0.84;75.50;100761.53;5015415;28;20651;-76
2022/03/03 05:21:14;;;;;;;20.50;18.07;;;;;;;-0.94;75.99;100775.75;5015281;28;20215;-76
2022/03/03 05:23:40;;;;;;;19.67;17.57;;;;;;;-0.96;76.31;100769.69;5015304;28;20249;-76
2022/03/03 05:26:07;;;;;;;23.73;17.70;;;;;;;-0.91;76.15;100764.72;5014741;28;20674;-77
2022/03/03 05:28:35;;;;;;;26.00;18.73;;;;;;;-0.87;76.81;100756.34;5014917;28;20654;-76
2022/03/03 05:31:01;;;;;;;22.10;17.60;;;;;;;-0.89;76.28;100745.13;5014990;28;20204;-76
2022/03/03 05:33:29;;;;;;;24.77;18.20;;;;;;;-0.94;76.42;100737.31;5015175;28;20321;-76
2022/03/03 05:36:00;;;;;;;22.43;18.20;;;;;;;-0.83;76.29;100737.66;5015077;28;20208;-76
2022/03/03 05:38:30;;;;;;;23.33;18.47;;;;;;;-0.76;75.92;100749.84;5014594;28;20303;-76
2022/03/03 05:40:57;;;;;;;21.47;18.03;;;;;;;-0.75;76.07;100764.41;5013432;28;20210;-75
2022/03/03 05:43:24;;;;;;;18.83;16.83;;;;;;;-0.74;75.90;100766.13;5006563;28;20216;-76
2022/03/03 05:45:52;;;;;;;20.17;18.03;;;;;;;-0.75;75.42;100784.03;5014600;28;20765;-76
2022/03/03 05:48:20;;;;;;;19.70;17.53;;;;;;;-0.89;75.39;100797.28;5014416;28;20265;-76
2022/03/03 05:50:47;;;;;;;19.63;17.73;;;;;;;-1.02;75.95;100793.41;5014482;28;20209;-77
2022/03/03 05:53:14;;;;;;;22.23;17.17;;;;;;;-1.09;76.75;100777.78;5014562;28;20285;-75
2022/03/03 05:55:43;;;;;;;20.73;17.67;;;;;;;-1.09;76.88;100753.06;5014419;28;20671;-75
2022/03/03 05:58:13;;;;;;;19.17;17.33;;;;;;;-1.13;75.89;100765.69;5014674;28;20241;-76
2022/03/03 06:00:40;;;;;;;18.87;16.90;;;;;;;-1.15;76.44;100775.91;5013881;28;20224;-76
2022/03/03 06:03:12;;;;;;;19.03;17.13;;;;;;;-1.09;76.26;100764.97;5014324;28;20215;-76
2022/03/03 06:05:41;;;;;;;21.50;17.63;;;;;;;-1.05;76.85;100756.56;5014726;28;20250;-76
2022/03/03 06:08:11;;;;;;;21.90;18.07;;;;;;;-0.98;77.06;100740.59;5014656;28;20407;-76
2022/03/03 06:10:46;;;;;;;21.20;17.90;;;;;;;-0.90;76.65;100745.97;5013889;28;20260;-76
2022/03/03 06:13:21;;;;;;;20.07;18.07;;;;;;;-0.82;76.04;100765.88;5006199;28;20227;-76
2022/03/03 06:15:48;;;;;;;24.07;18.77;;;;;;;-0.75;75.81;100763.50;5014431;28;20238;-75
2022/03/03 06:18:16;;;;;;;21.27;18.30;;;;;;;-0.70;75.43;100769.66;5014067;28;20229;-75
2022/03/03 06:20:45;;;;;;;24.93;19.80;;;;;;;-0.71;75.65;100780.75;5013928;28;20624;-75
2022/03/03 06:23:13;;;;;;;25.00;20.20;;;;;;;-0.70;75.76;100778.22;5013963;28;20210;-75
2022/03/03 06:25:40;;;;;;;21.37;19.17;;;;;;;-0.70;75.57;100769.66;5013012;28;20261;-76
2022/03/03 06:28:06;;;;;;;25.07;19.93;;;;;;;-0.70;74.45;100803.00;5014089;28;20228;-75
2022/03/03 06:30:32;;;;;;;24.50;19.70;;;;;;;-0.76;74.51;100810.50;5013649;28;20705;-75
2022/03/03 06:32:59;;;;;;;26.80;21.53;;;;;;;-0.98;75.37;100796.09;5013975;28;20227;-75
2022/03/03 06:35:27;;;;;;;29.27;21.23;;;;;;;-1.13;75.88;100771.72;5013932;28;20287;-76
2022/03/03 06:37:53;;;;;;;28.07;22.63;;;;;;;-1.01;76.61;100750.75;5013758;28;20230;-76
2022/03/03 06:40:20;;;;;;;27.93;21.50;;;;;;;-0.98;76.73;100749.97;5013655;28;20212;-76
2022/03/03 06:42:46;;;;;;;26.53;20.10;;;;;;;-0.97;77.29;100749.13;5012445;23;20242;-75
2022/03/03 06:45:13;;;;;;;25.27;20.60;;;;;;;-0.94;76.33;100734.75;4985368;28;20213;-75
2022/03/03 06:47:39;;;;;;;22.10;19.60;;;;;;;-1.12;76.29;100752.94;4993767;28;20226;-75
2022/03/03 06:50:06;;;;;;;23.97;20.53;;;;;;;-1.14;76.78;100743.47;4993977;28;20288;-75
2022/03/03 06:52:35;;;;;;;25.80;20.40;;;;;;;-1.02;76.86;100738.75;4993647;28;20710;-75
2022/03/03 06:55:02;;;;;;;27.97;21.07;;;;;;;-1.03;76.78;100731.88;4993950;28;20974;-75
2022/03/03 06:57:30;;;;;;;29.63;23.67;;;;;;;-0.95;76.53;100747.50;4993998;28;20237;-75
2022/03/03 07:00:01;;;;;;;33.00;23.60;;;;;;;-0.86;76.80;100743.53;4993630;28;20675;-75
2022/03/03 07:02:27;;;;;;;32.67;25.50;;;;;;;-0.84;76.69;100751.28;4975375;28;20256;-75
2022/03/03 07:04:55;;;;;;;33.77;24.23;;;;;;;-0.79;76.82;100749.75;4974369;28;20267;-75
2022/03/03 07:07:22;;;;;;;25.93;21.33;;;;;;;-0.70;76.45;100751.72;4974343;28;20226;-75
2022/03/03 07:09:51;;;;;;;26.33;20.67;;;;;;;-0.59;76.03;100758.06;4973949;28;20878;-75
2022/03/03 07:12:18;;;;;;;26.13;21.63;;;;;;;-0.75;75.65;100769.53;4992825;28;20639;-75
2022/03/03 07:14:45;;;;;;;28.80;21.93;;;;;;;-0.66;75.83;100776.63;4993624;28;20209;-75
2022/03/03 07:17:22;;;;;;;33.30;23.23;;;;;;;-0.62;75.86;100770.78;4993720;28;20237;-76
2022/03/03 07:20:01;;;;;;;28.30;22.37;;;;;;;-1.20;78.49;100745.00;4993177;28;20678;-75
2022/03/03 07:22:35;;;;;;;32.50;23.17;;;;;;;-1.42;80.03;100683.66;4992939;28;20664;-75
2022/03/03 07:25:06;;;;;;;27.27;21.23;;;;;;;-1.55;80.99;100645.66;4993362;28;20191;-75
2022/03/03 07:27:34;;;;;;;28.80;23.10;;;;;;;-1.66;81.96;100612.03;4993566;28;20573;-75
2022/03/03 07:30:05;;;;;;;29.93;21.17;;;;;;;-1.62;82.25;100596.84;4993163;28;20282;-75
2022/03/03 07:32:35;;;;;;;25.03;21.07;;;;;;;-1.66;82.01;100595.00;4992414;28;20220;-75
2022/03/03 07:35:06;;;;;;;28.30;21.83;;;;;;;-1.74;82.51;100588.75;4992845;28;20620;-75
2022/03/03 07:37:39;;;;;;;27.50;20.63;;;;;;;-1.82;83.70;100562.91;4993190;28;20319;-75
2022/03/03 07:40:10;;;;;;;32.57;22.30;;;;;;;-2.05;86.00;100510.97;4990767;28;20643;-75
2022/03/03 07:42:37;;;;;;;31.00;22.23;;;;;;;-2.03;86.25;100473.53;4999214;28;20256;-75
2022/03/03 07:45:05;;;;;;;31.20;21.77;;;;;;;-1.97;85.88;100462.63;4990583;28;20212;-79
2022/03/03 07:47:32;;;;;;;31.53;22.90;;;;;;;-1.92;86.20;100453.44;4993815;28;20236;-76
2022/03/03 07:49:59;;;;;;;83.07;48.13;;;;;;;-1.89;86.17;100443.28;4990496;28;20212;-78
2022/03/03 07:52:26;;;;;;;42.63;27.10;;;;;;;-1.75;85.81;100456.50;4976677;28;20274;-77
2022/03/03 07:54:53;;;;;;;32.97;23.00;;;;;;;-1.57;85.55;100461.31;4975092;28;20205;-75
2022/03/03 07:57:23;;;;;;;30.50;23.13;;;;;;;-1.56;84.88;100480.13;4972762;28;20233;-76
2022/03/03 07:59:58;;;;;;;31.03;22.20;;;;;;;-1.53;85.28;100488.75;4973410;28;20218;-75
2022/03/03 08:02:25;;;;;;;30.73;22.63;;;;;;;-1.54;85.68;100463.97;4973556;28;20207;-80
2022/03/03 08:04:52;;;;;;;31.90;23.20;;;;;;;-1.46;86.37;100464.22;4979380;28;20623;-77
2022/03/03 08:07:20;;;;;;;30.00;22.03;;;;;;;-1.40;86.43;100457.59;4977050;28;20225;-80
2022/03/03 08:09:48;;;;;;;31.53;23.03;;;;;;;-1.31;86.43;100461.22;4976163;28;20211;-80
2022/03/03 08:12:17;;;;;;;32.20;23.30;;;;;;;-1.25;86.72;100448.59;5001788;28;20227;-78
2022/03/03 08:14:46;;;;;;;31.83;23.97;;;;;;;-1.20;87.05;100450.47;5013611;28;20204;-77
2022/03/03 08:17:15;;;;;;;30.47;23.33;;;;;;;-0.97;86.07;100469.88;5014153;28;20226;-77
2022/03/03 08:19:43;;;;;;;31.13;22.43;;;;;;;-0.76;85.68;100485.00;5015964;28;20228;-79
2022/03/03 08:22:10;;;;;;;29.07;21.97;;;;;;;-0.58;84.03;100525.66;5013298;28;20214;-76
2022/03/03 08:24:42;;;;;;;24.00;20.67;;;;;;;-0.39;81.75;100580.88;5014771;28;20209;-77
2022/03/03 08:27:09;;;;;;;29.93;21.07;;;;;;;-0.23;79.75;100650.59;5021639;28;20320;-79
2022/03/03 08:29:36;;;;;;;25.73;20.67;;;;;;;-0.07;79.66;100680.09;5019521;28;20219;-77
2022/03/03 08:32:10;;;;;;;24.13;20.87;;;;;;;0.10;78.74;100701.13;5023250;28;20209;-77
2022/03/03 08:34:42;;;;;;;25.07;20.60;;;;;;;0.24;77.95;100724.59;5022507;28;20233;-75
2022/03/03 08:37:14;;;;;;;24.57;21.10;;;;;;;0.31;77.54;100739.31;5011913;28;20656;-75
2022/03/03 08:39:42;;;;;;;27.47;22.40;;;;;;;0.46;77.15;100749.16;5012090;28;20211;-76
2022/03/03 08:42:09;;;;;;;25.00;21.87;;;;;;;0.56;76.81;100763.13;5002689;28;20241;-77
2022/03/03 08:44:38;;;;;;;24.93;20.70;;;;;;;0.64;76.63;100777.03;5017355;28;20260;-77
2022/03/03 08:47:06;;;;;;;26.87;21.80;;;;;;;0.69;76.61;100788.28;5017035;28;20704;-77
2022/03/03 08:49:37;;;;;;;22.30;19.90;;;;;;;0.76;76.82;100781.63;5020965;28;20218;-77
2022/03/03 08:52:04;;;;;;;25.37;21.70;;;;;;;0.80;76.61;100786.03;5020408;28;20206;-77
2022/03/03 08:54:31;;;;;;;27.80;21.70;;;;;;;0.85;77.42;100779.28;5020353;28;20305;-77
2022/03/03 08:56:57;;;;;;;28.13;21.13;;;;;;;0.88;77.40;100760.53;5020209;28;20207;-77
2022/03/03 08:59:24;;;;;;;27.83;21.73;;;;;;;0.97;76.96;100773.59;5020670;28;20205;-77
2022/03/03 09:01:53;;;;;;;29.90;22.67;;;;;;;1.01;76.89;100780.53;5022071;28;20238;-77
2022/03/03 09:04:22;;;;;;;26.57;21.60;;;;;;;1.05;76.56;100781.50;5020889;28;20210;-77
2022/03/03 09:06:48;;;;;;;25.30;20.53;;;;;;;1.13;75.91;100805.69;5023220;28;20208;-77
2022/03/03 09:09:14;;;;;;;33.63;22.43;;;;;;;1.22;74.87;100831.66;5019501;28;20211;-77
2022/03/03 09:11:41;;;;;;;26.83;21.80;;;;;;;1.26;75.21;100837.75;5013457;28;20205;-77
2022/03/03 09:14:11;;;;;;;32.03;22.03;;;;;;;1.36;75.01;100827.72;5005926;28;20274;-77
2022/03/03 09:16:38;;;;;;;28.63;22.87;;;;;;;1.36;76.01;100814.84;5002174;28;20628;-78
2022/03/03 09:19:04;;;;;;;26.17;20.40;;;;;;;1.39;76.59;100812.38;5001936;28;20211;-77
2022/03/03 09:21:32;;;;;;;26.10;21.97;;;;;;;1.45;76.26;100803.03;5001129;28;20207;-77
2022/03/03 09:23:59;;;;;;;24.67;21.20;;;;;;;1.50;75.07;100822.03;5002069;28;20205;-78
2022/03/03 09:26:27;;;;;;;29.47;21.20;;;;;;;1.49;74.79;100835.75;5001844;28;20204;-76
2022/03/03 09:28:54;;;;;;;30.80;21.67;;;;;;;1.52;73.86;100852.09;5001833;28;20280;-77
2022/03/03 09:31:21;;;;;;;25.07;21.83;;;;;;;1.72;73.15;100864.59;5001473;28;20212;-77
2022/03/03 09:33:48;;;;;;;25.33;22.23;;;;;;;1.85;72.97;100889.78;5001132;28;20721;-77
2022/03/03 09:36:14;;;;;;;30.00;23.37;;;;;;;1.89;73.79;100881.31;5001510;28;20238;-77
2022/03/03 09:38:42;;;;;;;30.40;23.70;;;;;;;1.99;73.66;100869.53;5001878;28;20252;-77
2022/03/03 09:41:08;;;;;;;29.40;22.53;;;;;;;2.09;73.98;100881.75;5009430;28;20263;-77
2022/03/03 09:43:35;;;;;;;29.90;23.17;;;;;;;2.10;72.93;100891.25;5014328;28;20210;-77
2022/03/03 09:46:01;;;;;;;31.30;22.73;;;;;;;2.17;72.14;100899.97;5023227;28;20209;-77
2022/03/03 09:48:28;;;;;;;28.77;22.70;;;;;;;2.12;72.34;100906.72;5024050;28;20233;-78
2022/03/03 09:50:54;;;;;;;27.17;22.23;;;;;;;2.13;72.90;100911.03;5024526;28;20211;-77
2022/03/03 09:53:21;;;;;;;34.33;24.27;;;;;;;2.19;73.62;100901.72;5024111;28;20228;-78
2022/03/03 09:55:49;;;;;;;30.53;23.37;;;;;;;2.31;74.20;100882.25;5025169;28;20210;-78
2022/03/03 09:58:17;;;;;;;31.53;23.90;;;;;;;2.39;72.82;100893.59;5024085;28;20258;-78
2022/03/03 10:00:43;;;;;;;36.00;23.57;;;;;;;2.51;72.64;100901.56;5024848;28;20206;-78
2022/03/03 10:03:13;;;;;;;33.53;24.87;;;;;;;2.62;71.53;100919.84;5026169;28;20203;-78
2022/03/03 10:05:42;;;;;;;36.07;25.43;;;;;;;2.66;72.95;100918.22;5024105;28;20578;-77
2022/03/03 10:08:10;;;;;;;27.60;23.50;;;;;;;2.73;72.21;100913.19;5025604;28;20647;-77
2022/03/03 10:10:39;;;;;;;29.60;23.17;;;;;;;2.79;71.23;100953.69;5021426;28;20214;-77
2022/03/03 10:13:08;;;;;;;28.83;24.30;;;;;;;2.79;69.91;100976.91;5016895;28;20531;-77
2022/03/03 10:15:36;;;;;;;32.27;24.90;;;;;;;2.78;70.38;100980.34;5024048;28;20207;-77
2022/03/03 10:18:05;;;;;;;33.67;25.07;;;;;;;2.85;69.81;100978.75;5020036;28;20325;-77
2022/03/03 10:20:37;;;;;;;31.97;24.23;;;;;;;3.00;70.45;100991.97;4998943;28;20203;-77
2022/03/03 10:23:08;;;;;;;27.63;23.43;;;;;;;3.09;69.78;100999.91;4986772;28;20199;-77
2022/03/03 10:25:37;;;;;;;30.67;23.23;;;;;;;3.13;69.42;101004.28;4985506;28;20750;-76
2022/03/03 10:28:11;;;;;;;32.07;24.80;;;;;;;3.21;70.46;101008.72;4985684;28;20591;-76
2022/03/03 10:31:06;;;;;;;31.60;24.57;;;;;;;3.19;70.19;100988.03;4989636;28;20611;-77
2022/03/03 10:33:34;;;;;;;29.60;22.67;;;;;;;3.24;69.41;101009.66;4985686;28;20216;-77
2022/03/03 10:36:10;;;;;;;32.87;23.37;;;;;;;3.31;69.37;101016.69;4984263;28;20223;-77
2022/03/03 10:38:55;;;;;;;31.37;24.13;;;;;;;3.40;69.43;101022.88;4983200;28;20275;-76
2022/03/03 10:41:33;;;;;;;29.10;23.70;;;;;;;3.48;69.54;101021.31;4989946;28;20616;-77
2022/03/03 10:44:02;;;;;;;32.43;23.67;;;;;;;3.60;68.46;101046.47;4986079;28;20684;-76
2022/03/03 10:46:29;;;;;;;29.17;23.00;;;;;;;3.65;67.55;101066.38;4985421;28;20197;-77
2022/03/03 10:48:56;;;;;;;25.73;22.67;;;;;;;3.72;67.32;101068.22;4983797;28;20246;-76
2022/03/03 10:51:24;;;;;;;27.57;21.40;;;;;;;3.75;67.38;101088.94;4984583;28;20783;-76
2022/03/03 10:53:51;;;;;;;29.47;22.90;;;;;;;3.82;67.47;101084.75;4982335;28;20223;-76
2022/03/03 10:56:19;;;;;;;25.17;21.27;;;;;;;3.87;65.72;101092.63;4982185;28;20208;-76
2022/03/03 10:58:47;;;;;;;25.13;21.67;;;;;;;3.86;66.57;101120.13;4986873;28;20215;-76
2022/03/03 11:01:17;;;;;;;24.20;21.73;;;;;;;3.97;67.48;101089.34;4984487;28;20200;-76
2022/03/03 11:03:49;;;;;;;24.60;21.20;;;;;;;4.00;66.31;101111.78;4983128;28;20247;-76
2022/03/03 11:06:20;;;;;;;25.97;22.93;;;;;;;4.08;66.78;101117.97;4982563;28;20224;-75
2022/03/03 11:08:48;;;;;;;26.97;22.67;;;;;;;4.14;66.42;101121.53;4983250;28;20290;-76
2022/03/03 11:11:14;;;;;;;22.77;20.53;;;;;;;4.31;65.11;101137.34;4986147;28;20219;-76
2022/03/03 11:13:41;;;;;;;26.10;21.27;;;;;;;4.31;64.79;101165.78;4982423;28;20654;-75
2022/03/03 11:16:08;;;;;;;26.00;21.50;;;;;;;4.37;64.07;101176.22;4983196;28;20211;-76